sensor_id;sensor_type;location;lat;lon;timestamp;P1;durP1;ratioP1;P2;durP2;ratioP2
17595;SDS011;8916;47.086;15.920;2024-01-15T00:00:27;83.95;;;25.00;;
17595;SDS011;8916;47.086;15.920;2024-01-15T00:02:56;86.20;;;24.30;;
17595;SDS011;8916;47.086;15.920;2024-01-15T00:05:25;99.53;;;25.70;;
17595;SDS011;8916;47.086;15.920;2024-01-15T00:07:54;99.30;;;28.55;;
17595;SDS011;8916;47.086;15.920;2024-01-15T00:10:23;89.30;;;27.88;;
17595;SDS011;8916;47.086;15.920;2024-01-15T00:12:52;93.57;;;28.45;;
17595;SDS011;8916;47.086;15.920;2024-01-15T00:15:21;99.13;;;30.65;;
17595;SDS011;8916;47.086;15.920;2024-01-15T00:17:52;88.55;;;25.52;;
17595;SDS011;8916;47.086;15.920;2024-01-15T00:20:21;93.47;;;26.15;;
17595;SDS011;8916;47.086;15.920;2024-01-15T00:22:52;104.03;;;27.60;;
17595;SDS011;8916;47.086;15.920;2024-01-15T00:25:21;100.55;;;28.88;;
17595;SDS011;8916;47.086;15.920;2024-01-15T00:27:51;88.95;;;27.13;;
17595;SDS011;8916;47.086;15.920;2024-01-15T00:30:20;83.30;;;25.80;;
17595;SDS011;8916;47.086;15.920;2024-01-15T00:32:49;79.43;;;23.23;;
17595;SDS011;8916;47.086;15.920;2024-01-15T00:35:20;75.25;;;23.88;;
17595;SDS011;8916;47.086;15.920;2024-01-15T00:37:49;78.15;;;23.08;;
17595;SDS011;8916;47.086;15.920;2024-01-15T00:40:18;84.75;;;23.92;;
17595;SDS011;8916;47.086;15.920;2024-01-15T00:42:47;93.40;;;24.58;;
17595;SDS011;8916;47.086;15.920;2024-01-15T00:45:17;84.65;;;24.90;;
17595;SDS011;8916;47.086;15.920;2024-01-15T00:47:46;83.45;;;23.88;;
17595;SDS011;8916;47.086;15.920;2024-01-15T00:50:15;92.13;;;26.80;;
17595;SDS011;8916;47.086;15.920;2024-01-15T00:52:45;71.07;;;24.67;;
17595;SDS011;8916;47.086;15.920;2024-01-15T00:55:15;96.32;;;24.58;;
17595;SDS011;8916;47.086;15.920;2024-01-15T00:57:44;80.50;;;23.42;;
17595;SDS011;8916;47.086;15.920;2024-01-15T01:00:13;94.90;;;25.30;;
17595;SDS011;8916;47.086;15.920;2024-01-15T01:02:43;86.65;;;25.63;;
17595;SDS011;8916;47.086;15.920;2024-01-15T01:05:12;81.50;;;24.27;;
17595;SDS011;8916;47.086;15.920;2024-01-15T01:07:41;81.47;;;25.17;;
17595;SDS011;8916;47.086;15.920;2024-01-15T01:10:12;89.13;;;25.27;;
17595;SDS011;8916;47.086;15.920;2024-01-15T01:12:41;79.25;;;22.95;;
17595;SDS011;8916;47.086;15.920;2024-01-15T01:15:10;93.53;;;26.90;;
17595;SDS011;8916;47.086;15.920;2024-01-15T01:17:39;88.22;;;24.80;;
17595;SDS011;8916;47.086;15.920;2024-01-15T01:20:09;99.78;;;27.67;;
17595;SDS011;8916;47.086;15.920;2024-01-15T01:22:42;83.43;;;25.35;;
17595;SDS011;8916;47.086;15.920;2024-01-15T01:25:12;91.00;;;27.10;;
17595;SDS011;8916;47.086;15.920;2024-01-15T01:27:41;104.00;;;28.95;;
17595;SDS011;8916;47.086;15.920;2024-01-15T01:30:11;92.82;;;26.55;;
17595;SDS011;8916;47.086;15.920;2024-01-15T01:32:40;95.93;;;27.98;;
17595;SDS011;8916;47.086;15.920;2024-01-15T01:35:09;106.57;;;28.33;;
17595;SDS011;8916;47.086;15.920;2024-01-15T01:37:38;88.20;;;27.60;;
17595;SDS011;8916;47.086;15.920;2024-01-15T01:40:08;94.88;;;27.35;;
17595;SDS011;8916;47.086;15.920;2024-01-15T01:42:39;96.57;;;27.90;;
17595;SDS011;8916;47.086;15.920;2024-01-15T01:45:08;97.15;;;28.85;;
17595;SDS011;8916;47.086;15.920;2024-01-15T01:47:38;90.35;;;27.40;;
17595;SDS011;8916;47.086;15.920;2024-01-15T01:50:08;94.25;;;29.88;;
17595;SDS011;8916;47.086;15.920;2024-01-15T01:52:37;105.40;;;29.73;;
17595;SDS011;8916;47.086;15.920;2024-01-15T01:55:07;96.13;;;27.80;;
17595;SDS011;8916;47.086;15.920;2024-01-15T01:57:41;105.88;;;29.30;;
17595;SDS011;8916;47.086;15.920;2024-01-15T02:00:12;100.88;;;28.25;;
17595;SDS011;8916;47.086;15.920;2024-01-15T02:02:42;97.95;;;28.08;;
17595;SDS011;8916;47.086;15.920;2024-01-15T02:05:12;88.38;;;25.70;;
17595;SDS011;8916;47.086;15.920;2024-01-15T02:07:46;89.38;;;25.13;;
17595;SDS011;8916;47.086;15.920;2024-01-15T02:10:15;86.90;;;26.17;;
17595;SDS011;8916;47.086;15.920;2024-01-15T02:12:46;86.35;;;24.92;;
17595;SDS011;8916;47.086;15.920;2024-01-15T02:15:16;92.68;;;25.83;;
17595;SDS011;8916;47.086;15.920;2024-01-15T02:20:31;85.63;;;24.05;;
17595;SDS011;8916;47.086;15.920;2024-01-15T02:23:04;72.95;;;22.42;;
17595;SDS011;8916;47.086;15.920;2024-01-15T02:25:38;86.40;;;24.52;;
17595;SDS011;8916;47.086;15.920;2024-01-15T02:28:11;74.30;;;22.83;;
17595;SDS011;8916;47.086;15.920;2024-01-15T02:30:42;91.43;;;27.27;;
17595;SDS011;8916;47.086;15.920;2024-01-15T02:33:13;87.43;;;25.85;;
17595;SDS011;8916;47.086;15.920;2024-01-15T02:35:42;86.85;;;27.67;;
17595;SDS011;8916;47.086;15.920;2024-01-15T02:38:14;86.40;;;26.95;;
17595;SDS011;8916;47.086;15.920;2024-01-15T02:40:44;92.57;;;28.48;;
17595;SDS011;8916;47.086;15.920;2024-01-15T02:43:14;88.07;;;27.60;;
17595;SDS011;8916;47.086;15.920;2024-01-15T02:45:43;90.88;;;26.48;;
17595;SDS011;8916;47.086;15.920;2024-01-15T02:48:12;84.20;;;26.17;;
17595;SDS011;8916;47.086;15.920;2024-01-15T02:50:41;94.30;;;26.90;;
17595;SDS011;8916;47.086;15.920;2024-01-15T02:53:11;84.32;;;26.33;;
17595;SDS011;8916;47.086;15.920;2024-01-15T02:55:41;94.07;;;26.48;;
17595;SDS011;8916;47.086;15.920;2024-01-15T02:58:10;80.40;;;23.10;;
17595;SDS011;8916;47.086;15.920;2024-01-15T03:00:39;95.60;;;25.83;;
17595;SDS011;8916;47.086;15.920;2024-01-15T03:03:10;84.97;;;26.63;;
17595;SDS011;8916;47.086;15.920;2024-01-15T03:05:39;87.18;;;25.98;;
17595;SDS011;8916;47.086;15.920;2024-01-15T03:08:08;73.32;;;23.10;;
17595;SDS011;8916;47.086;15.920;2024-01-15T03:10:37;99.72;;;28.75;;
17595;SDS011;8916;47.086;15.920;2024-01-15T03:13:07;89.90;;;26.95;;
17595;SDS011;8916;47.086;15.920;2024-01-15T03:15:36;77.32;;;26.02;;
17595;SDS011;8916;47.086;15.920;2024-01-15T03:18:06;87.65;;;26.02;;
17595;SDS011;8916;47.086;15.920;2024-01-15T03:20:35;93.60;;;26.45;;
17595;SDS011;8916;47.086;15.920;2024-01-15T03:23:04;85.40;;;24.42;;
17595;SDS011;8916;47.086;15.920;2024-01-15T03:25:33;83.68;;;24.00;;
17595;SDS011;8916;47.086;15.920;2024-01-15T03:28:03;88.07;;;25.65;;
17595;SDS011;8916;47.086;15.920;2024-01-15T03:30:34;84.93;;;25.15;;
17595;SDS011;8916;47.086;15.920;2024-01-15T03:33:03;85.10;;;24.40;;
17595;SDS011;8916;47.086;15.920;2024-01-15T03:35:33;87.28;;;26.17;;
17595;SDS011;8916;47.086;15.920;2024-01-15T03:38:02;85.32;;;26.05;;
17595;SDS011;8916;47.086;15.920;2024-01-15T03:40:31;95.03;;;25.13;;
17595;SDS011;8916;47.086;15.920;2024-01-15T03:43:00;79.05;;;24.65;;
17595;SDS011;8916;47.086;15.920;2024-01-15T03:45:29;91.38;;;25.13;;
17595;SDS011;8916;47.086;15.920;2024-01-15T03:48:00;91.18;;;25.63;;
17595;SDS011;8916;47.086;15.920;2024-01-15T03:50:29;88.20;;;25.63;;
17595;SDS011;8916;47.086;15.920;2024-01-15T03:52:58;78.88;;;23.10;;
17595;SDS011;8916;47.086;15.920;2024-01-15T03:55:27;87.18;;;23.88;;
17595;SDS011;8916;47.086;15.920;2024-01-15T03:57:56;80.63;;;24.02;;
17595;SDS011;8916;47.086;15.920;2024-01-15T04:00:25;88.57;;;25.67;;
17595;SDS011;8916;47.086;15.920;2024-01-15T04:02:54;75.57;;;23.27;;
17595;SDS011;8916;47.086;15.920;2024-01-15T04:05:25;80.43;;;24.08;;
17595;SDS011;8916;47.086;15.920;2024-01-15T04:07:54;83.03;;;24.70;;
17595;SDS011;8916;47.086;15.920;2024-01-15T04:10:23;71.13;;;22.60;;
17595;SDS011;8916;47.086;15.920;2024-01-15T04:12:52;79.30;;;25.55;;
17595;SDS011;8916;47.086;15.920;2024-01-15T04:15:21;88.35;;;24.73;;
17595;SDS011;8916;47.086;15.920;2024-01-15T04:17:51;72.10;;;23.67;;
17595;SDS011;8916;47.086;15.920;2024-01-15T04:20:20;87.28;;;25.67;;
17595;SDS011;8916;47.086;15.920;2024-01-15T04:22:53;81.03;;;23.83;;
17595;SDS011;8916;47.086;15.920;2024-01-15T04:25:22;86.03;;;23.33;;
17595;SDS011;8916;47.086;15.920;2024-01-15T04:27:51;86.28;;;25.40;;
17595;SDS011;8916;47.086;15.920;2024-01-15T04:30:20;85.22;;;25.27;;
17595;SDS011;8916;47.086;15.920;2024-01-15T04:32:49;70.47;;;22.90;;
17595;SDS011;8916;47.086;15.920;2024-01-15T04:35:18;83.60;;;23.67;;
17595;SDS011;8916;47.086;15.920;2024-01-15T04:37:48;72.07;;;21.77;;
17595;SDS011;8916;47.086;15.920;2024-01-15T04:40:18;76.88;;;24.00;;
17595;SDS011;8916;47.086;15.920;2024-01-15T04:42:47;83.50;;;23.48;;
17595;SDS011;8916;47.086;15.920;2024-01-15T04:45:17;80.00;;;23.92;;
17595;SDS011;8916;47.086;15.920;2024-01-15T04:47:47;66.20;;;22.63;;
17595;SDS011;8916;47.086;15.920;2024-01-15T04:50:16;82.70;;;23.45;;
17595;SDS011;8916;47.086;15.920;2024-01-15T04:52:45;85.30;;;23.25;;
17595;SDS011;8916;47.086;15.920;2024-01-15T04:55:14;80.90;;;24.38;;
17595;SDS011;8916;47.086;15.920;2024-01-15T04:57:44;89.35;;;25.55;;
17595;SDS011;8916;47.086;15.920;2024-01-15T05:00:14;90.72;;;27.30;;
17595;SDS011;8916;47.086;15.920;2024-01-15T05:02:44;91.57;;;26.63;;
17595;SDS011;8916;47.086;15.920;2024-01-15T05:05:13;76.53;;;25.30;;
17595;SDS011;8916;47.086;15.920;2024-01-15T05:07:44;74.22;;;22.85;;
17595;SDS011;8916;47.086;15.920;2024-01-15T05:10:13;86.45;;;25.05;;
17595;SDS011;8916;47.086;15.920;2024-01-15T05:12:42;78.70;;;24.42;;
17595;SDS011;8916;47.086;15.920;2024-01-15T05:15:13;74.60;;;21.33;;
17595;SDS011;8916;47.086;15.920;2024-01-15T05:17:42;65.68;;;22.33;;
17595;SDS011;8916;47.086;15.920;2024-01-15T05:20:11;77.38;;;24.83;;
17595;SDS011;8916;47.086;15.920;2024-01-15T05:22:40;66.97;;;21.10;;
17595;SDS011;8916;47.086;15.920;2024-01-15T05:25:10;79.57;;;21.58;;
17595;SDS011;8916;47.086;15.920;2024-01-15T05:27:39;103.15;;;30.20;;
17595;SDS011;8916;47.086;15.920;2024-01-15T05:30:08;100.13;;;27.15;;
17595;SDS011;8916;47.086;15.920;2024-01-15T05:32:40;93.03;;;25.60;;
17595;SDS011;8916;47.086;15.920;2024-01-15T05:35:09;80.07;;;23.35;;
17595;SDS011;8916;47.086;15.920;2024-01-15T05:37:42;84.60;;;25.48;;
17595;SDS011;8916;47.086;15.920;2024-01-15T05:40:13;72.32;;;22.50;;
17595;SDS011;8916;47.086;15.920;2024-01-15T05:42:43;80.82;;;25.83;;
17595;SDS011;8916;47.086;15.920;2024-01-15T05:45:12;110.03;;;34.65;;
17595;SDS011;8916;47.086;15.920;2024-01-15T05:47:42;103.00;;;31.30;;
17595;SDS011;8916;47.086;15.920;2024-01-15T05:50:12;103.68;;;30.38;;
17595;SDS011;8916;47.086;15.920;2024-01-15T05:52:41;114.47;;;31.50;;
17595;SDS011;8916;47.086;15.920;2024-01-15T05:55:10;97.15;;;27.27;;
17595;SDS011;8916;47.086;15.920;2024-01-15T05:57:39;98.72;;;27.00;;
17595;SDS011;8916;47.086;15.920;2024-01-15T06:00:09;94.53;;;28.17;;
17595;SDS011;8916;47.086;15.920;2024-01-15T06:02:39;89.95;;;27.08;;
17595;SDS011;8916;47.086;15.920;2024-01-15T06:05:10;106.80;;;32.45;;
17595;SDS011;8916;47.086;15.920;2024-01-15T06:07:39;110.05;;;32.58;;
17595;SDS011;8916;47.086;15.920;2024-01-15T06:10:08;101.10;;;30.05;;
17595;SDS011;8916;47.086;15.920;2024-01-15T06:12:37;98.40;;;28.25;;
17595;SDS011;8916;47.086;15.920;2024-01-15T06:15:07;85.93;;;24.80;;
17595;SDS011;8916;47.086;15.920;2024-01-15T06:17:37;109.57;;;28.73;;
17595;SDS011;8916;47.086;15.920;2024-01-15T06:20:06;94.43;;;27.05;;
17595;SDS011;8916;47.086;15.920;2024-01-15T06:22:39;87.93;;;24.90;;
17595;SDS011;8916;47.086;15.920;2024-01-15T06:25:08;80.68;;;24.33;;
17595;SDS011;8916;47.086;15.920;2024-01-15T06:27:37;96.57;;;28.95;;
17595;SDS011;8916;47.086;15.920;2024-01-15T06:30:06;112.05;;;30.85;;
17595;SDS011;8916;47.086;15.920;2024-01-15T06:32:37;112.75;;;31.70;;
17595;SDS011;8916;47.086;15.920;2024-01-15T06:35:06;93.93;;;28.33;;
17595;SDS011;8916;47.086;15.920;2024-01-15T06:37:39;100.45;;;29.38;;
17595;SDS011;8916;47.086;15.920;2024-01-15T06:40:08;91.95;;;27.75;;
17595;SDS011;8916;47.086;15.920;2024-01-15T06:42:38;82.95;;;26.20;;
17595;SDS011;8916;47.086;15.920;2024-01-15T06:45:07;85.60;;;26.45;;
17595;SDS011;8916;47.086;15.920;2024-01-15T06:47:37;88.88;;;25.90;;
17595;SDS011;8916;47.086;15.920;2024-01-15T06:50:07;99.30;;;25.40;;
17595;SDS011;8916;47.086;15.920;2024-01-15T06:52:38;92.00;;;25.70;;
17595;SDS011;8916;47.086;15.920;2024-01-15T06:55:08;90.38;;;23.25;;
17595;SDS011;8916;47.086;15.920;2024-01-15T06:57:37;71.80;;;23.20;;
17595;SDS011;8916;47.086;15.920;2024-01-15T07:00:06;75.00;;;23.13;;
17595;SDS011;8916;47.086;15.920;2024-01-15T07:02:37;75.60;;;21.27;;
17595;SDS011;8916;47.086;15.920;2024-01-15T07:05:07;80.40;;;25.63;;
17595;SDS011;8916;47.086;15.920;2024-01-15T07:07:36;66.78;;;22.27;;
17595;SDS011;8916;47.086;15.920;2024-01-15T07:10:07;64.45;;;21.33;;
17595;SDS011;8916;47.086;15.920;2024-01-15T07:12:37;76.20;;;21.73;;
17595;SDS011;8916;47.086;15.920;2024-01-15T07:15:06;60.38;;;20.30;;
17595;SDS011;8916;47.086;15.920;2024-01-15T07:17:37;80.55;;;23.42;;
17595;SDS011;8916;47.086;15.920;2024-01-15T07:20:07;87.50;;;23.13;;
17595;SDS011;8916;47.086;15.920;2024-01-15T07:22:38;83.72;;;24.30;;
17595;SDS011;8916;47.086;15.920;2024-01-15T07:25:09;70.35;;;21.63;;
17595;SDS011;8916;47.086;15.920;2024-01-15T07:27:40;75.97;;;22.55;;
17595;SDS011;8916;47.086;15.920;2024-01-15T07:30:13;76.03;;;22.85;;
17595;SDS011;8916;47.086;15.920;2024-01-15T07:32:42;69.95;;;22.58;;
17595;SDS011;8916;47.086;15.920;2024-01-15T07:35:11;98.43;;;24.90;;
17595;SDS011;8916;47.086;15.920;2024-01-15T07:37:41;86.03;;;24.80;;
17595;SDS011;8916;47.086;15.920;2024-01-15T07:40:12;77.43;;;24.23;;
17595;SDS011;8916;47.086;15.920;2024-01-15T07:42:41;80.45;;;23.65;;
17595;SDS011;8916;47.086;15.920;2024-01-15T07:45:11;83.32;;;23.10;;
17595;SDS011;8916;47.086;15.920;2024-01-15T07:47:40;72.95;;;22.90;;
17595;SDS011;8916;47.086;15.920;2024-01-15T07:50:09;75.30;;;24.45;;
17595;SDS011;8916;47.086;15.920;2024-01-15T07:52:39;79.05;;;21.95;;
17595;SDS011;8916;47.086;15.920;2024-01-15T07:55:09;73.65;;;22.77;;
17595;SDS011;8916;47.086;15.920;2024-01-15T07:57:40;70.82;;;22.40;;
17595;SDS011;8916;47.086;15.920;2024-01-15T08:00:09;76.93;;;22.58;;
17595;SDS011;8916;47.086;15.920;2024-01-15T08:02:39;77.05;;;23.67;;
17595;SDS011;8916;47.086;15.920;2024-01-15T08:05:08;77.28;;;23.15;;
17595;SDS011;8916;47.086;15.920;2024-01-15T08:07:37;74.22;;;21.85;;
17595;SDS011;8916;47.086;15.920;2024-01-15T08:10:07;66.45;;;22.33;;
17595;SDS011;8916;47.086;15.920;2024-01-15T08:12:36;79.07;;;23.45;;
17595;SDS011;8916;47.086;15.920;2024-01-15T08:15:07;73.82;;;22.38;;
17595;SDS011;8916;47.086;15.920;2024-01-15T08:17:36;65.15;;;21.05;;
17595;SDS011;8916;47.086;15.920;2024-01-15T08:20:06;78.40;;;22.38;;
17595;SDS011;8916;47.086;15.920;2024-01-15T08:22:36;62.97;;;21.85;;
17595;SDS011;8916;47.086;15.920;2024-01-15T08:25:05;72.55;;;23.23;;
17595;SDS011;8916;47.086;15.920;2024-01-15T08:27:35;64.38;;;20.77;;
17595;SDS011;8916;47.086;15.920;2024-01-15T08:30:04;64.97;;;20.55;;
17595;SDS011;8916;47.086;15.920;2024-01-15T08:32:37;62.15;;;21.35;;
17595;SDS011;8916;47.086;15.920;2024-01-15T08:35:09;58.38;;;18.77;;
17595;SDS011;8916;47.086;15.920;2024-01-15T08:37:39;67.35;;;20.27;;
17595;SDS011;8916;47.086;15.920;2024-01-15T08:40:08;58.03;;;19.70;;
17595;SDS011;8916;47.086;15.920;2024-01-15T08:42:39;58.03;;;18.90;;
17595;SDS011;8916;47.086;15.920;2024-01-15T08:45:09;62.83;;;20.20;;
17595;SDS011;8916;47.086;15.920;2024-01-15T08:47:38;61.95;;;20.83;;
17595;SDS011;8916;47.086;15.920;2024-01-15T08:50:07;60.38;;;20.10;;
17595;SDS011;8916;47.086;15.920;2024-01-15T08:52:37;55.00;;;18.75;;
17595;SDS011;8916;47.086;15.920;2024-01-15T08:55:06;46.53;;;16.25;;
17595;SDS011;8916;47.086;15.920;2024-01-15T08:57:36;69.07;;;19.58;;
17595;SDS011;8916;47.086;15.920;2024-01-15T09:00:05;54.15;;;18.00;;
17595;SDS011;8916;47.086;15.920;2024-01-15T09:02:37;64.00;;;19.88;;
17595;SDS011;8916;47.086;15.920;2024-01-15T09:05:07;45.80;;;17.42;;
17595;SDS011;8916;47.086;15.920;2024-01-15T09:07:36;59.53;;;19.55;;
17595;SDS011;8916;47.086;15.920;2024-01-15T09:10:06;53.70;;;18.35;;
17595;SDS011;8916;47.086;15.920;2024-01-15T09:12:36;45.97;;;16.38;;
17595;SDS011;8916;47.086;15.920;2024-01-15T09:15:06;59.55;;;19.55;;
17595;SDS011;8916;47.086;15.920;2024-01-15T09:17:37;47.38;;;17.20;;
17595;SDS011;8916;47.086;15.920;2024-01-15T09:20:27;52.92;;;16.90;;
17595;SDS011;8916;47.086;15.920;2024-01-15T09:22:57;49.47;;;16.90;;
17595;SDS011;8916;47.086;15.920;2024-01-15T09:25:26;44.97;;;17.45;;
17595;SDS011;8916;47.086;15.920;2024-01-15T09:27:55;57.72;;;18.77;;
17595;SDS011;8916;47.086;15.920;2024-01-15T09:30:25;51.53;;;18.38;;
17595;SDS011;8916;47.086;15.920;2024-01-15T09:32:56;47.60;;;18.15;;
17595;SDS011;8916;47.086;15.920;2024-01-15T09:35:26;40.03;;;15.57;;
17595;SDS011;8916;47.086;15.920;2024-01-15T09:37:55;61.38;;;18.08;;
17595;SDS011;8916;47.086;15.920;2024-01-15T09:40:24;46.47;;;17.23;;
17595;SDS011;8916;47.086;15.920;2024-01-15T09:42:59;42.58;;;16.92;;
17595;SDS011;8916;47.086;15.920;2024-01-15T09:45:29;51.17;;;17.60;;
17595;SDS011;8916;47.086;15.920;2024-01-15T09:48:00;44.63;;;16.17;;
17595;SDS011;8916;47.086;15.920;2024-01-15T09:50:30;50.50;;;16.63;;
17595;SDS011;8916;47.086;15.920;2024-01-15T09:52:59;38.92;;;15.68;;
17595;SDS011;8916;47.086;15.920;2024-01-15T09:55:28;50.17;;;17.15;;
17595;SDS011;8916;47.086;15.920;2024-01-15T09:58:00;45.72;;;17.30;;
17595;SDS011;8916;47.086;15.920;2024-01-15T10:00:30;56.03;;;16.05;;
17595;SDS011;8916;47.086;15.920;2024-01-15T10:03:01;42.55;;;15.60;;
17595;SDS011;8916;47.086;15.920;2024-01-15T10:05:32;48.15;;;17.17;;
17595;SDS011;8916;47.086;15.920;2024-01-15T10:08:01;38.78;;;15.00;;
17595;SDS011;8916;47.086;15.920;2024-01-15T10:10:32;39.53;;;15.18;;
17595;SDS011;8916;47.086;15.920;2024-01-15T10:13:04;39.53;;;15.50;;
17595;SDS011;8916;47.086;15.920;2024-01-15T10:15:34;41.20;;;14.55;;
17595;SDS011;8916;47.086;15.920;2024-01-15T10:18:06;41.83;;;14.23;;
17595;SDS011;8916;47.086;15.920;2024-01-15T10:20:35;42.00;;;15.68;;
17595;SDS011;8916;47.086;15.920;2024-01-15T10:23:04;37.38;;;14.82;;
17595;SDS011;8916;47.086;15.920;2024-01-15T10:25:35;38.80;;;14.18;;
17595;SDS011;8916;47.086;15.920;2024-01-15T10:28:04;35.30;;;13.70;;
17595;SDS011;8916;47.086;15.920;2024-01-15T10:30:34;34.33;;;12.85;;
17595;SDS011;8916;47.086;15.920;2024-01-15T10:33:03;27.58;;;11.48;;
17595;SDS011;8916;47.086;15.920;2024-01-15T10:35:35;25.55;;;12.30;;
17595;SDS011;8916;47.086;15.920;2024-01-15T10:38:05;27.38;;;11.75;;
17595;SDS011;8916;47.086;15.920;2024-01-15T10:40:34;27.35;;;11.30;;
17595;SDS011;8916;47.086;15.920;2024-01-15T10:43:04;27.92;;;11.85;;
17595;SDS011;8916;47.086;15.920;2024-01-15T10:45:33;35.08;;;12.98;;
17595;SDS011;8916;47.086;15.920;2024-01-15T10:48:02;28.10;;;12.40;;
17595;SDS011;8916;47.086;15.920;2024-01-15T10:50:32;36.28;;;13.52;;
17595;SDS011;8916;47.086;15.920;2024-01-15T10:53:04;29.83;;;12.27;;
17595;SDS011;8916;47.086;15.920;2024-01-15T10:55:34;31.25;;;11.85;;
17595;SDS011;8916;47.086;15.920;2024-01-15T10:58:06;26.90;;;10.98;;
17595;SDS011;8916;47.086;15.920;2024-01-15T11:00:36;21.92;;;9.82;;
17595;SDS011;8916;47.086;15.920;2024-01-15T11:03:06;29.23;;;10.82;;
17595;SDS011;8916;47.086;15.920;2024-01-15T11:05:38;29.38;;;11.40;;
17595;SDS011;8916;47.086;15.920;2024-01-15T11:08:07;26.60;;;10.32;;
17595;SDS011;8916;47.086;15.920;2024-01-15T11:10:38;21.90;;;9.63;;
17595;SDS011;8916;47.086;15.920;2024-01-15T11:13:14;27.08;;;10.57;;
17595;SDS011;8916;47.086;15.920;2024-01-15T11:16:00;24.50;;;10.35;;
17595;SDS011;8916;47.086;15.920;2024-01-15T11:18:31;25.60;;;10.63;;
17595;SDS011;8916;47.086;15.920;2024-01-15T11:21:22;23.88;;;9.85;;
17595;SDS011;8916;47.086;15.920;2024-01-15T11:23:54;24.40;;;10.55;;
17595;SDS011;8916;47.086;15.920;2024-01-15T11:26:32;25.35;;;9.40;;
17595;SDS011;8916;47.086;15.920;2024-01-15T11:29:04;21.55;;;9.43;;
17595;SDS011;8916;47.086;15.920;2024-01-15T11:34:50;27.17;;;10.35;;
17595;SDS011;8916;47.086;15.920;2024-01-15T11:37:28;27.50;;;9.38;;
17595;SDS011;8916;47.086;15.920;2024-01-15T11:40:19;23.63;;;10.07;;
17595;SDS011;8916;47.086;15.920;2024-01-15T11:42:49;19.23;;;8.75;;
17595;SDS011;8916;47.086;15.920;2024-01-15T11:45:20;23.05;;;9.57;;
17595;SDS011;8916;47.086;15.920;2024-01-15T11:50:43;27.05;;;10.50;;
17595;SDS011;8916;47.086;15.920;2024-01-15T11:53:21;25.10;;;10.48;;
17595;SDS011;8916;47.086;15.920;2024-01-15T11:56:02;21.17;;;9.48;;
17595;SDS011;8916;47.086;15.920;2024-01-15T11:58:35;26.02;;;9.95;;
17595;SDS011;8916;47.086;15.920;2024-01-15T12:01:04;24.33;;;9.82;;
17595;SDS011;8916;47.086;15.920;2024-01-15T12:03:34;25.40;;;10.35;;
17595;SDS011;8916;47.086;15.920;2024-01-15T12:06:05;22.55;;;9.50;;
17595;SDS011;8916;47.086;15.920;2024-01-15T12:08:36;21.70;;;10.43;;
17595;SDS011;8916;47.086;15.920;2024-01-15T12:11:06;27.00;;;10.73;;
17595;SDS011;8916;47.086;15.920;2024-01-15T12:13:39;25.17;;;10.32;;
17595;SDS011;8916;47.086;15.920;2024-01-15T12:16:08;26.92;;;10.63;;
17595;SDS011;8916;47.086;15.920;2024-01-15T12:18:38;30.05;;;10.77;;
17595;SDS011;8916;47.086;15.920;2024-01-15T12:21:07;28.25;;;10.95;;
17595;SDS011;8916;47.086;15.920;2024-01-15T12:23:40;25.77;;;10.68;;
17595;SDS011;8916;47.086;15.920;2024-01-15T12:26:09;26.17;;;10.93;;
17595;SDS011;8916;47.086;15.920;2024-01-15T12:28:39;27.88;;;10.48;;
17595;SDS011;8916;47.086;15.920;2024-01-15T12:31:08;26.48;;;10.63;;
17595;SDS011;8916;47.086;15.920;2024-01-15T12:33:37;25.60;;;11.20;;
17595;SDS011;8916;47.086;15.920;2024-01-15T12:36:08;28.77;;;11.43;;
17595;SDS011;8916;47.086;15.920;2024-01-15T12:38:37;30.80;;;12.35;;
17595;SDS011;8916;47.086;15.920;2024-01-15T12:41:08;29.10;;;11.15;;
17595;SDS011;8916;47.086;15.920;2024-01-15T12:43:37;26.48;;;11.80;;
17595;SDS011;8916;47.086;15.920;2024-01-15T12:46:07;24.75;;;11.25;;
17595;SDS011;8916;47.086;15.920;2024-01-15T12:48:37;26.55;;;11.43;;
17595;SDS011;8916;47.086;15.920;2024-01-15T12:51:07;23.77;;;11.52;;
17595;SDS011;8916;47.086;15.920;2024-01-15T12:53:37;25.95;;;11.77;;
17595;SDS011;8916;47.086;15.920;2024-01-15T12:56:07;25.40;;;11.05;;
17595;SDS011;8916;47.086;15.920;2024-01-15T12:58:36;26.65;;;11.77;;
17595;SDS011;8916;47.086;15.920;2024-01-15T13:01:05;29.38;;;11.13;;
17595;SDS011;8916;47.086;15.920;2024-01-15T13:03:35;23.45;;;10.45;;
17595;SDS011;8916;47.086;15.920;2024-01-15T13:06:04;24.67;;;11.30;;
17595;SDS011;8916;47.086;15.920;2024-01-15T13:08:34;25.17;;;10.82;;
17595;SDS011;8916;47.086;15.920;2024-01-15T13:11:03;23.85;;;11.45;;
17595;SDS011;8916;47.086;15.920;2024-01-15T13:13:34;22.25;;;11.10;;
17595;SDS011;8916;47.086;15.920;2024-01-15T13:16:03;24.83;;;11.23;;
17595;SDS011;8916;47.086;15.920;2024-01-15T13:18:33;25.30;;;10.32;;
17595;SDS011;8916;47.086;15.920;2024-01-15T13:21:02;24.95;;;11.05;;
17595;SDS011;8916;47.086;15.920;2024-01-15T13:23:32;24.70;;;11.55;;
17595;SDS011;8916;47.086;15.920;2024-01-15T13:26:01;27.10;;;11.00;;
17595;SDS011;8916;47.086;15.920;2024-01-15T13:28:30;25.20;;;10.52;;
17595;SDS011;8916;47.086;15.920;2024-01-15T13:31:01;22.27;;;10.32;;
17595;SDS011;8916;47.086;15.920;2024-01-15T13:33:32;26.17;;;11.68;;
17595;SDS011;8916;47.086;15.920;2024-01-15T13:36:01;31.30;;;12.40;;
17595;SDS011;8916;47.086;15.920;2024-01-15T13:38:30;31.88;;;12.80;;
17595;SDS011;8916;47.086;15.920;2024-01-15T13:41:03;26.73;;;12.20;;
17595;SDS011;8916;47.086;15.920;2024-01-15T13:43:33;23.20;;;11.07;;
17595;SDS011;8916;47.086;15.920;2024-01-15T13:46:04;26.52;;;10.95;;
17595;SDS011;8916;47.086;15.920;2024-01-15T13:48:33;22.98;;;10.32;;
17595;SDS011;8916;47.086;15.920;2024-01-15T13:51:02;33.88;;;13.65;;
17595;SDS011;8916;47.086;15.920;2024-01-15T13:53:32;28.75;;;11.55;;
17595;SDS011;8916;47.086;15.920;2024-01-15T13:56:01;25.52;;;11.35;;
17595;SDS011;8916;47.086;15.920;2024-01-15T13:58:32;26.13;;;11.20;;
17595;SDS011;8916;47.086;15.920;2024-01-15T14:01:01;25.48;;;9.93;;
17595;SDS011;8916;47.086;15.920;2024-01-15T14:03:33;24.77;;;10.15;;
17595;SDS011;8916;47.086;15.920;2024-01-15T14:06:02;24.55;;;9.95;;
17595;SDS011;8916;47.086;15.920;2024-01-15T14:08:36;23.88;;;9.55;;
17595;SDS011;8916;47.086;15.920;2024-01-15T14:11:05;24.25;;;10.50;;
17595;SDS011;8916;47.086;15.920;2024-01-15T14:13:35;23.08;;;9.52;;
17595;SDS011;8916;47.086;15.920;2024-01-15T14:16:04;25.23;;;9.85;;
17595;SDS011;8916;47.086;15.920;2024-01-15T14:18:35;25.25;;;11.60;;
17595;SDS011;8916;47.086;15.920;2024-01-15T14:21:04;28.85;;;10.40;;
17595;SDS011;8916;47.086;15.920;2024-01-15T14:23:38;27.92;;;11.23;;
17595;SDS011;8916;47.086;15.920;2024-01-15T14:26:09;26.25;;;11.38;;
17595;SDS011;8916;47.086;15.920;2024-01-15T14:28:41;22.10;;;10.85;;
17595;SDS011;8916;47.086;15.920;2024-01-15T14:31:16;28.90;;;11.27;;
17595;SDS011;8916;47.086;15.920;2024-01-15T14:33:47;24.98;;;10.40;;
17595;SDS011;8916;47.086;15.920;2024-01-15T14:36:16;27.38;;;11.32;;
17595;SDS011;8916;47.086;15.920;2024-01-15T14:38:45;24.95;;;10.73;;
17595;SDS011;8916;47.086;15.920;2024-01-15T14:41:16;27.02;;;10.63;;
17595;SDS011;8916;47.086;15.920;2024-01-15T14:43:45;22.75;;;10.45;;
17595;SDS011;8916;47.086;15.920;2024-01-15T14:46:14;25.73;;;10.18;;